Terminal Aerodrome Forecast
Issued by NWS

Home | Current Version | Previous Version | Text Only | Print | Product List | Glossary On
Versions: 1 2 3 4 5 6 7 8 9 10 11 12
446
FTPA31 PHFO 291135
TAFHKO
TAF
PHKO 291135Z 2912/3012 12005KT P6SM FEW025 SCT060
     FM292000 22011KT P6SM SCT060
     FM300200 18008KT P6SM FEW025 BKN060
     FM300700 12005KT P6SM FEW025 SCT050=

USA.gov is the U.S. government's official web portal to all federal, state and local government web resources and services.